• Join FlightAware (Why Join?)
  • Login
  • US Flag 
08:35AM EDT


 

Airport Tracker/Info


-or-


 

Live Flight TrackerFlight Track Log ✈ EIA5161 ✈ 14-Jul-2010 ✈ KCHS - KPAE

Flight Track Log - Related Links

Times and Time Zones

All times are in EDT time to prevent confusion due to time zone crossing. See the EIA5161 flight status page for this flight to view local times or setup timezone preferences in your user account.

Time Position Orientation Groundspeed Altitude Reporting Facility
EDT Latitude Longitude Course Direction KTS MPH feet Rate Location/Type
09:08PM 32.8247 -80.0103 283° West 194 223 2,700  Level Jacksonville Center
09:09PM 32.8367 -80.0742 294° West 141 162 3,800 1,080 Climbing Jacksonville Center
09:10PM 32.8631 -80.1450 293° West 167 192 4,900 1,200 Climbing Jacksonville Center
09:11PM 32.8897 -80.2183 293° West 212 244 6,300 1,260 Climbing Jacksonville Center
09:12PM 32.9164 -80.2942 293° West 235 270 7,500 1,200 Climbing Jacksonville Center
09:13PM 32.9431 -80.3703 329° Northwest 249 287 8,700 1,140 Climbing Jacksonville Center
09:14PM 33.0022 -80.4131 340° North 243 280 9,800 600 Climbing Jacksonville Center
09:15PM 33.0656 -80.4411 356° North 243 280 10,000 60 Climbing Jacksonville Center
09:16PM 33.1367 -80.4467 354° North 243 280 10,000 480 Level Jacksonville Center
09:17PM 33.2203 -80.4567 339° North 267 307 11,000 1,200 Climbing Jacksonville Center
09:18PM 33.3086 -80.4967 307° West 323 372 12,400 1,860 Climbing Jacksonville Center
09:19PM 33.3731 -80.5994 298° West 343 395 14,800 2,280 Climbing Jacksonville Center
09:20PM 33.4231 -80.7125 298° West 351 404 17,000 2,040 Climbing Jacksonville Center
09:21PM 33.4775 -80.8333 295° West 390 449 18,900 1,980 Climbing Jacksonville Center
09:22PM 33.5275 -80.9617 296° West 409 471 21,000 1,860 Climbing Jacksonville Center
09:23PM 33.5794 -81.0903 296° West 425 489 22,700 1,620 Climbing Jacksonville Center
09:24PM 33.6333 -81.2211 298° West 430 495 24,300 1,560 Climbing Jacksonville Center
09:25PM 33.6892 -81.3500 302° West 437 503 25,900 1,500 Climbing Jacksonville Center
09:26PM 33.7556 -81.4761 308° West 442 509 27,300 1,260 Climbing Jacksonville Center
09:28PM 33.9250 -81.7356 302° West 467 537 29,900 1,080 Climbing Atlanta Center
09:29PM 33.9942 -81.8689 311° West 473 544 30,800 960 Climbing Atlanta Center
09:30PM 34.0819 -81.9897 311° West 480 552 31,900 1,080 Climbing Atlanta Center
09:31PM 34.1714 -82.1131 309° West 480 552 33,000 1,020 Climbing Atlanta Center
09:32PM 34.2547 -82.2392 308° West 485 558 34,000 960 Climbing Atlanta Center
09:33PM 34.3339 -82.3633 308° West 485 558 35,000 900 Climbing Atlanta Center
09:34PM 34.4128 -82.4878 307° West 478 550 35,800 480 Climbing Atlanta Center
09:35PM 34.5000 -82.6272 308° West 478 550 36,000 60 Climbing Atlanta Center
09:36PM 34.5786 -82.7497 308° West 467 537 36,000  Level Atlanta Center
09:37PM 34.6547 -82.8697 308° West 461 531 36,000  Level Atlanta Center
09:38PM 34.7331 -82.9925 308° West 456 525 36,000  Level Atlanta Center
09:39PM 34.8114 -83.1153 307° West 456 525 36,000  Level Atlanta Center
09:40PM 34.8872 -83.2361 306° West 461 531 36,000  Level Atlanta Center
09:41PM 34.9631 -83.3619 307° West 466 536 36,000  Level Atlanta Center
09:42PM 35.0242 -83.4606 307° West 461 531 36,000  Level Atlanta Center
09:43PM 35.1083 -83.5969 308° West 461 531 36,000  Level Atlanta Center
09:44PM 35.1858 -83.7186 306° West 461 531 36,000  Level Atlanta Center
09:45PM 35.2611 -83.8456 307° West 461 531 36,000  Level Atlanta Center
09:46PM 35.3386 -83.9700 307° West 456 525 36,000  Level Atlanta Center
09:47PM 35.4158 -84.0947 307° West 456 525 36,000  Level Atlanta Center
09:48PM 35.4928 -84.2197 307° West 456 525 36,000  Level Atlanta Center
09:49PM 35.5697 -84.3450 306° West 456 525 36,000  Level Atlanta Center
09:50PM 35.6444 -84.4706 307° West 456 525 36,000  Level Atlanta Center
09:51PM 35.7211 -84.5964 307° West 456 525 36,000  Level Atlanta Center
09:52PM 35.7956 -84.7197 308° West 456 525 36,000  Level Atlanta Center
09:53PM 35.8783 -84.8511 306° West 468 539 36,000  Level Atlanta Center
09:55PM 36.0422 -85.1306 306° West 484 557 36,000  Level Memphis Center
09:56PM 36.1183 -85.2594 306° West 473 544 36,000  Level Memphis Center
09:57PM 36.1925 -85.3883 306° West 473 544 36,000  Level Memphis Center
09:58PM 36.2683 -85.5178 306° West 473 544 36,000  Level Memphis Center
09:59PM 36.3422 -85.6447 307° West 468 539 36,000  Level Memphis Center
10:00PM 36.4200 -85.7742 306° West 468 539 36,000  Level Memphis Center
10:01PM 36.5044 -85.9167 306° West 462 532 36,000  Level Memphis Center
10:02PM 36.5819 -86.0492 306° West 462 532 36,000  Level Memphis Center
10:03PM 36.6572 -86.1797 306° West 462 532 36,000  Level Memphis Center
10:04PM 36.7325 -86.3078 304° West 462 532 36,000  Level Memphis Center
10:05PM 36.8056 -86.4417 307° West 462 532 36,000  Level Memphis Center
10:07PM 36.9219 -86.6381 305° West 501 577 36,000  Level Indianapolis Center
10:08PM 37.0036 -86.7844 305° West 490 564 36,000  Level Indianapolis Center
10:09PM 37.0769 -86.9178 305° West 477 549 36,000  Level Indianapolis Center
10:10PM 37.1522 -87.0542 305° West 477 549 36,000  Level Indianapolis Center
10:11PM 37.2275 -87.1881 305° West 477 549 36,000  Level Indianapolis Center
10:12PM 37.3044 -87.3250 305° West 477 549 36,000  Level Indianapolis Center
10:13PM 37.3775 -87.4567 305° West 477 549 36,000  Level Indianapolis Center
10:14PM 37.4542 -87.5942 304° West 477 549 36,000  Level Indianapolis Center
10:15PM 37.5267 -87.7289 303° West 477 549 36,000  Level Indianapolis Center
10:16PM 37.6408 -87.9489 304° West 470 541 36,000  Level Kansas City Center
10:17PM 37.7153 -88.0867 304° West 470 541 36,000  Level Kansas City Center
10:18PM 37.7894 -88.2250 305° West 470 541 36,000  Level Kansas City Center
10:19PM 37.8631 -88.3608 305° West 470 541 36,000  Level Kansas City Center
10:20PM 37.9367 -88.4944 304° West 464 534 36,000  Level Kansas City Center
10:21PM 38.0106 -88.6333 304° West 464 534 36,000  Level Kansas City Center
10:22PM 38.0814 -88.7650 305° West 458 527 36,000  Level Kansas City Center
10:23PM 38.1569 -88.9019 303° West 469 540 36,000  Level Kansas City Center
10:24PM 38.2258 -89.0369 304° West 464 534 36,000  Level Kansas City Center
10:25PM 38.3008 -89.1769 305° West 469 540 36,000  Level Kansas City Center
10:26PM 38.3736 -89.3119 304° West 463 533 36,000  Level Kansas City Center
10:27PM 38.4442 -89.4475 305° West 463 533 36,000  Level Kansas City Center
10:28PM 38.5186 -89.5858 305° West 463 533 36,000  Level Kansas City Center
10:29PM 38.5861 -89.7089 303° West 463 533 36,000  Level Kansas City Center
10:30PM 38.6586 -89.8531 308° West 481 554 36,000  Level Kansas City Center
10:31PM 38.7478 -89.9992 335° Northwest 489 563 36,000  Level Kansas City Center
10:32PM 38.8500 -90.0594 330° Northwest 451 519 36,000  Level Kansas City Center
10:33PM 38.9744 -90.1533 306° West 464 534 36,000  Level Kansas City Center
10:34PM 39.0411 -90.2697 303° West 455 524 36,000  Level Kansas City Center
10:35PM 39.1194 -90.4228 302° West 462 532 36,000  Level Kansas City Center
10:36PM 39.1800 -90.5481 302° West 462 532 36,000  Level Kansas City Center
10:37PM 39.2539 -90.7022 303° West 462 532 36,000  Level Kansas City Center
10:38PM 39.3228 -90.8408 302° West 462 532 36,000  Level Kansas City Center
10:39PM 39.3894 -90.9797 303° West 457 526 36,000  Level Kansas City Center
10:40PM 39.4581 -91.1189 302° West 463 533 36,000  Level Kansas City Center
10:41PM 39.5244 -91.2583 302° West 463 533 36,000  Level Kansas City Center
10:42PM 39.5842 -91.3850 302° West 463 533 36,000  Level Kansas City Center
10:43PM 39.6589 -91.5408 301° West 463 533 36,000  Level Kansas City Center
10:44PM 39.7247 -91.6811 302° West 469 540 36,000  Level Kansas City Center
10:45PM 39.7928 -91.8242 310° West 463 533 36,000  Level Kansas City Center
10:46PM 39.8747 -91.9536 322° Northwest 468 539 36,000  Level Kansas City Center
10:47PM 39.9747 -92.0556 320° Northwest 462 532 36,000  Level Kansas City Center
10:48PM 40.0769 -92.1658 322° Northwest 462 532 36,000  Level Kansas City Center
10:50PM 40.2597 -92.3564 321° Northwest 465 535 36,000  Level Chicago Center
10:52PM 40.4561 -92.5644 319° Northwest 473 544 36,000  Level Chicago Center
10:54PM 40.6092 -92.7375 321° Northwest 471 542 36,000  Level Minneapolis Center
10:55PM 40.7075 -92.8431 320° Northwest 465 535 36,000  Level Minneapolis Center
10:56PM 40.8142 -92.9597 320° Northwest 460 529 36,000  Level Minneapolis Center
10:57PM 40.9061 -93.0633 322° Northwest 448 516 36,000  Level Minneapolis Center
10:58PM 41.0022 -93.1642 320° Northwest 442 509 36,000  Level Minneapolis Center
10:59PM 41.0917 -93.2656 321° Northwest 437 503 36,000  Level Minneapolis Center
11:00PM 41.1875 -93.3672 319° Northwest 431 496 36,000  Level Minneapolis Center
11:01PM 41.2833 -93.4775 320° Northwest 442 509 36,000  Level Minneapolis Center
11:02PM 41.3811 -93.5853 311° West 447 514 36,000  Level Minneapolis Center
11:03PM 41.4639 -93.7125 297° West 447 514 36,000  Level Minneapolis Center
11:04PM 41.5197 -93.8567 294° West 447 514 36,000  Level Minneapolis Center
11:05PM 41.5711 -94.0094 297° West 447 514 36,000  Level Minneapolis Center
11:06PM 41.6283 -94.1569 298° West 447 514 36,000  Level Minneapolis Center
11:07PM 41.6817 -94.2936 297° West 447 514 36,000  Level Minneapolis Center
11:08PM 41.7386 -94.4444 296° West 452 520 36,000  Level Minneapolis Center
11:09PM 41.7953 -94.5983 297° West 452 520 36,000  Level Minneapolis Center
11:10PM 41.8539 -94.7525 295° West 457 526 36,000  Level Minneapolis Center
11:11PM 41.9081 -94.9069 296° West 457 526 36,000  Level Minneapolis Center
11:12PM 41.9642 -95.0644 297° West 462 532 36,000  Level Minneapolis Center
11:13PM 42.0242 -95.2222 296° West 472 543 36,000  Level Minneapolis Center
11:14PM 42.0819 -95.3833 297° West 472 543 36,000  Level Minneapolis Center
11:15PM 42.1433 -95.5475 295° West 472 543 36,000  Level Minneapolis Center
11:16PM 42.1983 -95.7089 296° West 472 543 36,000  Level Minneapolis Center
11:17PM 42.2533 -95.8622 295° West 467 537 36,000  Level Minneapolis Center
11:18PM 42.3081 -96.0214 296° West 467 537 36,000  Level Minneapolis Center
11:19PM 42.3628 -96.1753 295° West 467 537 36,000  Level Minneapolis Center
11:20PM 42.4169 -96.3325 294° West 467 537 36,000  Level Minneapolis Center
11:21PM 42.4669 -96.4867 295° West 460 529 36,000  Level Minneapolis Center
11:22PM 42.5189 -96.6383 296° West 454 522 36,000  Level Minneapolis Center
11:23PM 42.5728 -96.7878 295° West 447 514 36,000  Level Minneapolis Center
11:24PM 42.6244 -96.9372 293° West 447 514 36,000  Level Minneapolis Center
11:25PM 42.6714 -97.0897 297° West 447 514 36,000  Level Minneapolis Center
11:26PM 42.7286 -97.2456 295° West 425 489 36,000  Level Minneapolis Center
11:27PM 42.7797 -97.3931 293° West 432 497 36,000  Level Minneapolis Center
11:28PM 42.8283 -97.5464 295° West 432 497 36,000  Level Minneapolis Center
11:29PM 42.8769 -97.6911 295° West 425 489 36,000  Level Minneapolis Center
11:30PM 42.9294 -97.8422 294° West 430 495 36,000  Level Minneapolis Center
11:31PM 42.9758 -97.9878 294° West 425 489 36,000  Level Minneapolis Center
11:32PM 43.0256 -98.1392 294° West 430 495 36,000 360 Level Minneapolis Center
11:33PM 43.0736 -98.2850 294° West 425 489 36,800 660 Climbing Minneapolis Center
11:34PM 43.1211 -98.4339 292° West 430 495 37,400 360 Climbing Minneapolis Center
11:35PM 43.1608 -98.5683 296° West 424 488 37,600 300 Climbing Minneapolis Center
11:36PM 43.2142 -98.7211 292° West 430 495 38,000 180 Climbing Minneapolis Center
11:37PM 43.2608 -98.8764 293° West 439 505 38,000  Level Minneapolis Center
11:38PM 43.3108 -99.0408 294° West 434 499 38,000  Level Minneapolis Center
11:39PM 43.3594 -99.1911 294° West 429 494 38,000  Level Minneapolis Center
11:40PM 43.4081 -99.3389 292° West 429 494 38,000  Level Minneapolis Center
11:41PM 43.4519 -99.4919 294° West 429 494 38,000  Level Minneapolis Center
11:42PM 43.5000 -99.6403 292° West 429 494 38,000  Level Minneapolis Center
11:43PM 43.5436 -99.7911 293° West 429 494 38,000  Level Minneapolis Center
11:44PM 43.5894 -99.9394 293° West 429 494 38,000  Level Minneapolis Center
11:45PM 43.6347 -100.0880 293° West 429 494 38,000  Level Minneapolis Center
11:46PM 43.6803 -100.2340 293° West 429 494 38,000  Level Minneapolis Center
11:47PM 43.7253 -100.3830 293° West 429 494 38,000  Level Minneapolis Center
11:48PM 43.7700 -100.5320 291° West 423 487 38,000  Level Minneapolis Center
11:49PM 43.8106 -100.6810 293° West 423 487 38,000  Level Minneapolis Center
11:51PM 43.9131 -101.0240 292° West 426 490 38,000  Level Denver Center
11:52PM 43.9550 -101.1700 292° West 426 490 38,000  Level Denver Center
11:53PM 43.9992 -101.3190 292° West 426 490 38,000  Level Denver Center
11:54PM 44.0431 -101.4690 292° West 426 490 38,000  Level Denver Center
11:55PM 44.0847 -101.6150 291° West 421 484 38,000  Level Denver Center
11:56PM 44.1261 -101.7620 292° West 421 484 38,000  Level Denver Center
11:57PM 44.1694 -101.9090 291° West 421 484 38,000  Level Denver Center
11:58PM 44.2106 -102.0600 292° West 416 479 38,000  Level Denver Center
11:59PM 44.2536 -102.2070 293° West 416 479 38,000  Level Denver Center
12:00AM 44.2983 -102.3550 290° West 416 479 38,000  Level Denver Center
12:01AM 44.3367 -102.5030 291° West 416 479 38,000  Level Denver Center
12:02AM 44.3769 -102.6520 291° West 416 479 38,000  Level Denver Center
12:03AM 44.4172 -102.8000 291° West 416 479 38,000  Level Denver Center
12:04AM 44.4592 -102.9520 291° West 416 479 38,000  Level Denver Center
12:05AM 44.4989 -103.1010 289° West 416 479 38,000  Level Denver Center
12:06AM 44.5364 -103.2500 289° West 421 484 38,000  Level Denver Center
12:07AM 44.5736 -103.3990 292° West 421 484 38,000  Level Denver Center
12:08AM 44.6150 -103.5460 291° West 421 484 38,000  Level Denver Center
12:09AM 44.6514 -103.6810 290° West 411 473 38,000  Level Denver Center
12:10AM 44.6950 -103.8510 290° West 411 473 38,000  Level Denver Center
12:11AM 44.7333 -103.9990 290° West 411 473 38,000  Level Denver Center
12:12AM 44.7697 -104.1400 291° West 421 484 38,000  Level Denver Center
12:13AM 44.8100 -104.2880 288° West 421 484 38,000  Level Denver Center
12:14AM 44.8503 -104.4590 290° West 416 479 38,000  Level Denver Center
12:15AM 44.8903 -104.6130 288° West 421 484 38,000  Level Denver Center
12:17AM 44.9408 -104.8340 289° West 406 467 38,000  Level Salt Lake Center
12:18AM 44.9828 -105.0030 290° West 413 475 38,000  Level Salt Lake Center
12:19AM 45.0211 -105.1520 290° West 413 475 38,000  Level Salt Lake Center
12:20AM 45.0594 -105.3040 289° West 413 475 38,000  Level Salt Lake Center
12:21AM 45.0928 -105.4420 288° West 413 475 38,000  Level Salt Lake Center
12:22AM 45.1314 -105.6070 289° West 413 475 38,000  Level Salt Lake Center
12:23AM 45.1692 -105.7590 290° West 413 475 38,000  Level Salt Lake Center
12:24AM 45.2039 -105.8950 288° West 413 475 38,000  Level Salt Lake Center
12:25AM 45.2392 -106.0480 288° West 413 475 38,000  Level Salt Lake Center
12:26AM 45.2792 -106.2190 288° West 413 475 38,000  Level Salt Lake Center
12:27AM 45.3142 -106.3760 289° West 413 475 38,000  Level Salt Lake Center
12:28AM 45.3483 -106.5150 288° West 413 475 38,000  Level Salt Lake Center
12:29AM 45.3831 -106.6720 289° West 413 475 38,000  Level Salt Lake Center
12:30AM 45.4242 -106.8440 287° West 413 475 38,000  Level Salt Lake Center
12:31AM 45.4583 -107.0010 289° West 413 475 38,000  Level Salt Lake Center
12:32AM 45.4919 -107.1440 288° West 413 475 38,000  Level Salt Lake Center
12:33AM 45.5303 -107.3170 288° West 413 475 38,000  Level Salt Lake Center
12:34AM 45.5661 -107.4780 288° West 413 475 38,000  Level Salt Lake Center
12:35AM 45.6014 -107.6360 287° West 418 481 38,000  Level Salt Lake Center
12:36AM 45.6322 -107.7820 288° West 418 481 38,000  Level Salt Lake Center
12:37AM 45.6717 -107.9560 286° West 418 481 38,000  Level Salt Lake Center
12:38AM 45.7044 -108.1180 288° West 418 481 38,000  Level Salt Lake Center
12:39AM 45.7367 -108.2610 287° West 418 481 38,000  Level Salt Lake Center
12:40AM 45.7711 -108.4210 286° West 418 481 38,000  Level Salt Lake Center
12:41AM 45.8078 -108.6010 289° West 418 481 38,000  Level Salt Lake Center
12:42AM 45.8458 -108.7600 292° West 418 481 38,000  Level Salt Lake Center
12:43AM 45.8856 -108.9050 289° West 431 496 38,000  Level Salt Lake Center
12:44AM 45.9297 -109.0850 291° West 431 496 38,000  Level Salt Lake Center
12:45AM 45.9733 -109.2480 290° West 436 502 38,000  Level Salt Lake Center
12:46AM 46.0128 -109.4080 290° West 436 502 38,000  Level Salt Lake Center
12:47AM 46.0497 -109.5570 290° West 436 502 38,000  Level Salt Lake Center
12:48AM 46.0928 -109.7320 289° West 436 502 38,000  Level Salt Lake Center
12:49AM 46.1314 -109.8960 289° West 436 502 38,000  Level Salt Lake Center
12:55AM 46.3586 -110.8450 286° West 424 488 38,000  Level Salt Lake Center
12:56AM 46.3917 -111.0110 289° West 429 494 38,000  Level Salt Lake Center
01:02AM 46.6136 -111.9860 290° West 427 491 38,000  Level Salt Lake Center
01:03AM 46.6536 -112.1440 290° West 427 491 38,000  Level Salt Lake Center
01:04AM 46.6931 -112.3060 290° West 427 491 38,000  Level Salt Lake Center
01:06AM 46.7694 -112.6220 290° West 421 484 38,000  Level Salt Lake Center
01:07AM 46.8103 -112.7870 291° West 421 484 38,000  Level Salt Lake Center
01:08AM 46.8550 -112.9590 289° West 426 490 38,000  Level Salt Lake Center
01:09AM 46.8933 -113.1240 289° West 426 490 38,000  Level Salt Lake Center
01:10AM 46.9314 -113.2840 289° West 426 490 38,000  Level Salt Lake Center
01:12AM 47.0069 -113.6120 289° West 426 490 38,000  Level Salt Lake Center
01:13AM 47.0467 -113.7790 288° West 426 490 38,000  Level Salt Lake Center
01:14AM 47.1136 -114.0770 287° West 430 495 38,000  Level Seattle Center
01:15AM 47.1489 -114.2450 289° West 430 495 38,000  Level Seattle Center
01:16AM 47.1875 -114.4060 287° West 430 495 38,000  Level Seattle Center
01:17AM 47.2222 -114.5740 288° West 430 495 38,000  Level Seattle Center
01:18AM 47.2586 -114.7390 288° West 430 495 38,000  Level Seattle Center
01:19AM 47.2947 -114.9040 289° West 430 495 38,000  Level Seattle Center
01:20AM 47.3328 -115.0720 288° West 430 495 38,000  Level Seattle Center
01:21AM 47.3686 -115.2370 287° West 430 495 38,000  Level Seattle Center
01:22AM 47.4042 -115.4060 288° West 430 495 38,000  Level Seattle Center
01:23AM 47.4414 -115.5720 283° West 430 495 38,000  Level Seattle Center
01:24AM 47.4653 -115.7200 272° West 430 495 38,000  Level Seattle Center
01:25AM 47.4692 -115.8920 275° West 425 489 38,000  Level Seattle Center
01:26AM 47.4789 -116.0660 276° West 425 489 38,000  Level Seattle Center
01:27AM 47.4903 -116.2340 276° West 419 482 38,000  Level Seattle Center
01:28AM 47.5017 -116.4090 274° West 419 482 38,000  Level Seattle Center
01:29AM 47.5106 -116.5800 275° West 419 482 38,000  Level Seattle Center
01:30AM 47.5214 -116.7480 274° West 419 482 38,000  Level Seattle Center
01:31AM 47.5303 -116.9410 275° West 432 497 38,000  Level Seattle Center
01:32AM 47.5406 -117.1160 274° West 442 509 38,000  Level Seattle Center
01:33AM 47.5483 -117.2850 274° West 431 496 38,000  Level Seattle Center
01:34AM 47.5564 -117.4660 275° West 438 504 38,000  Level Seattle Center
01:35AM 47.5658 -117.6400 279° West 433 498 38,000  Level Seattle Center
01:36AM 47.5833 -117.8090 277° West 428 493 38,000  Level Seattle Center
01:37AM 47.5964 -117.9780 279° West 423 487 38,000  Level Seattle Center
01:38AM 47.6136 -118.1490 278° West 423 487 38,000  Level Seattle Center
01:39AM 47.6303 -118.3210 277° West 423 487 38,000  Level Seattle Center
01:40AM 47.6447 -118.4900 278° West 423 487 38,000  Level Seattle Center
01:41AM 47.6611 -118.6620 277° West 423 487 38,000  Level Seattle Center
01:42AM 47.6753 -118.8340 278° West 423 487 38,000  Level Seattle Center
01:43AM 47.6908 -119.0030 276° West 423 487 38,000  Level Seattle Center
01:44AM 47.7025 -119.1760 279° West 423 487 38,000  Level Seattle Center
01:45AM 47.7197 -119.3450 276° West 423 487 38,000  Level Seattle Center
01:46AM 47.7328 -119.5180 276° West 423 487 38,000  Level Seattle Center
01:47AM 47.7456 -119.6900 276° West 423 487 38,000  Level Seattle Center
01:48AM 47.7581 -119.8600 276° West 423 487 38,000  Level Seattle Center
01:49AM 47.7703 -120.0330 278° West 423 487 38,000 -420 Level Seattle Center
01:50AM 47.7864 -120.2090 276° West 423 487 37,200 -1,860 Descending Seattle Center
01:51AM 47.7981 -120.3780 277° West 423 487 34,300 -3,900 Descending Seattle Center
01:52AM 47.8117 -120.5540 276° West 423 487 29,500 -4,440 Descending Seattle Center
01:53AM 47.8231 -120.7180 278° West 423 487 25,500 -3,540 Descending Seattle Center
01:54AM 47.8364 -120.8640 275° West 404 465 22,500 -2,880 Descending Seattle Center
01:55AM 47.8453 -121.0180 276° West 399 459 19,800 -2,580 Descending Seattle Center
01:56AM 47.8561 -121.1700 276° West 386 444 17,400 -2,880 Descending Seattle Center
01:57AM 47.8664 -121.3310 274° West 368 423 14,100 -2,940 Descending Seattle Center
01:58AM 47.8728 -121.4730 276° West 368 423 11,600 -1,980 Descending Seattle Center
01:59AM 47.8833 -121.6130 273° West 357 411 10,200 -1,140 Descending Seattle Center
02:00AM 47.8847 -121.6560 276° West 318 366 10,100 -240 Descending Seattle Center
02:00AM 47.8897 -121.7240 269° West 320 368 10,000 -120 Descending Seattle Center
02:01AM 47.8892 -121.7680 278° West 273 314 10,000  Level Seattle Center
02:01AM 47.8961 -121.8390 277° West 296 341 10,000  Level Seattle Center
02:02AM 47.9047 -121.9480 275° West 282 325 10,000 -540 Level Seattle Center
02:03AM 47.9111 -122.0560 284° West 281 323 9,000 -1,320 Descending Seattle Center
02:04AM 47.9278 -122.1590 355° North 271 312 7,400 -1,320 Descending Seattle Center
02:05AM 47.9942 -122.1680 North 203 234 6,400 -1,140 Descending Seattle Center
02:06AM 48.0525 -122.1640 334° Northwest 200 230 5,200 -1,320 Descending Seattle Center
02:07AM 48.0997 -122.1980 258° West 195 224 3,800 -1,140 Descending Seattle Center
02:08AM 48.0897 -122.2690 196° South 144 166 3,000 -540 Descending Seattle Center
02:09AM 48.0458 -122.2880 181° South 114 131 2,800 -540 Descending Seattle Center
02:10AM 48.0000 -122.2890 201° Southwest 131 151 2,000 -480 Descending Seattle Center
02:11AM 47.9642 -122.3090 201° Southwest 137 158 1,900 -120 Descending Seattle Center